Forside
METAR-TAF:

METAR-TAF

Lufthavne :

Kraków-Balice Johannes Paul II Lufthavn

Kraków, Polen

Breddekreds: 50-05N, længdekreds: 019-48E, højde: 237 m

Aktuelle vejr

Denne rapport blev lavet for 23 minutter siden, kl. 23:30 UTC
Vind 2 kt fra varierende retninger
Temperatur 10°C
Fugtighed 82%
Tryk 1026 hPa
Sigt 10 km eller mere
ingen skyer under 1500m og ingen cumulonimbus

METAR: EPKK 122330Z VRB02KT CAVOK 10/07 Q1026

Tid: 01:53 (23:53 UTC)

Vejrudsigter

Denne rapport blev lavet for 23 minutter siden, kl. 23:30 UTC
Foreløbig gælder fra 13 på 00 UTC til 13 på 24 UTC
Vind 2 kt fra varierende retninger
Sigt 10 km eller mere
ingen skyer under 1500m og ingen cumulonimbus
ændring
fra 13 på 06 UTC til 13 på 08 UTC
Vind 12 kt fra vestsydvest
Midlertidig
fra 13 på 12 UTC til 13 på 15 UTC
Vind 15 kt fra vestsydvest med vindstød på up til 25 kt

TAF: EPKK 122330Z 1300/1324 VRB02KT CAVOK BECMG 1306/1308 25012KT TEMPO 1312/1315 25015G25KT

Vejrobservationer og prognoser fra mere end 4000 lufthavne (METAR og TAF).

De gule og røde prikker repræsenterer de meteorologiske stationer.

Flyt musen over at se navnet på stationen.

Så klik over at se vejr observationer og prognoser.

At skifte det kort: Klik på de grønne knapper med et sort kors for at zoome ind; på den grønne knap med en bindestreg for at zoome ud; eller på de grønne pile for tilstødende kort.


METAR-TAF: